createdAt,value
2022-12-04T00:02:32.650Z,89.69
2022-12-04T00:05:29.760Z,89.38
2022-12-04T00:08:19.956Z,89.41
2022-12-04T00:11:27.917Z,89.37
2022-12-04T00:15:25.349Z,89.40
2022-12-04T00:29:49.078Z,89.49
2022-12-04T00:32:17.451Z,89.62
2022-12-04T00:34:58.262Z,89.42
2022-12-04T00:37:26.676Z,89.85
2022-12-04T00:40:42.675Z,89.70
2022-12-04T00:43:12.952Z,90.00
2022-12-04T00:45:41.588Z,89.68
2022-12-04T00:48:38.621Z,89.37
2022-12-04T00:51:09.783Z,89.66
2022-12-04T00:53:39.063Z,89.51
2022-12-04T00:56:10.378Z,89.49
2022-12-04T00:58:52.765Z,89.59
2022-12-04T01:01:29.845Z,89.41
2022-12-04T01:03:58.403Z,89.74
2022-12-04T01:06:31.931Z,89.56
2022-12-04T01:09:28.743Z,89.56
2022-12-04T01:12:04.702Z,89.41
2022-12-04T01:14:33.319Z,89.41
2022-12-04T01:17:01.816Z,89.57
2022-12-04T01:19:31.704Z,89.48
2022-12-04T01:22:00.151Z,89.46
2022-12-04T01:24:49.394Z,89.35
2022-12-04T01:27:18.735Z,89.59
2022-12-04T01:29:47.532Z,89.33
2022-12-04T01:32:16.143Z,89.26
2022-12-04T01:35:02.349Z,89.39
2022-12-04T01:37:31.888Z,89.46
2022-12-04T01:40:01.100Z,89.72
2022-12-04T01:42:29.887Z,89.47
2022-12-04T01:45:36.658Z,89.51
2022-12-04T01:48:25.402Z,89.52
2022-12-04T01:51:10.863Z,89.46
2022-12-04T01:53:44.540Z,89.90
2022-12-04T01:56:14.747Z,90.07
2022-12-04T01:58:55.414Z,90.01
2022-12-04T02:02:09.722Z,89.97
2022-12-04T02:04:40.149Z,90.08
2022-12-04T02:07:20.154Z,90.24
2022-12-04T02:09:55.300Z,90.16
2022-12-04T02:16:04.885Z,90.55
2022-12-04T02:18:40.793Z,90.58
2022-12-04T02:21:20.895Z,90.71
2022-12-04T02:24:45.365Z,90.75
2022-12-04T02:27:33.701Z,91.03
2022-12-04T02:42:35.497Z,90.64
2022-12-04T02:45:12.188Z,90.88
2022-12-04T02:47:46.660Z,90.93
2022-12-04T02:50:18.125Z,90.86
2022-12-04T02:52:50.764Z,90.74
2022-12-04T02:55:37.605Z,90.59
2022-12-04T02:58:13.115Z,90.98
2022-12-04T03:00:43.970Z,91.08
2022-12-04T03:03:20.196Z,90.96
2022-12-04T03:05:57.838Z,90.86
2022-12-04T03:08:31.802Z,90.79
2022-12-04T03:11:04.732Z,90.94
2022-12-04T03:13:53.369Z,91.11
2022-12-04T03:16:26.916Z,90.80
2022-12-04T03:19:01.015Z,91.14
2022-12-04T03:21:33.266Z,90.99
2022-12-04T03:24:10.067Z,90.77
2022-12-04T03:27:11.042Z,90.94
2022-12-04T03:29:44.364Z,90.85
2022-12-04T03:32:16.245Z,90.85
2022-12-04T03:34:52.575Z,90.88
2022-12-04T03:37:42.580Z,90.72
2022-12-04T03:40:41.793Z,91.18
2022-12-04T03:43:26.172Z,90.92
2022-12-04T03:45:59.097Z,90.87
2022-12-04T03:48:32.891Z,91.04
2022-12-04T03:51:08.488Z,90.95
2022-12-04T03:53:43.549Z,90.89
2022-12-04T03:56:22.654Z,91.16
2022-12-04T03:58:56.885Z,90.71
2022-12-04T04:01:39.302Z,90.83
2022-12-04T04:07:51.633Z,91.20
2022-12-04T04:10:24.688Z,91.25
2022-12-04T04:13:23.226Z,91.43
2022-12-04T04:16:28.295Z,91.46
2022-12-04T04:19:16.975Z,91.10
2022-12-04T04:22:07.202Z,91.47
2022-12-04T04:24:41.545Z,91.22
2022-12-04T04:27:10.201Z,91.34
2022-12-04T04:29:39.235Z,91.40
2022-12-04T04:32:16.322Z,91.45
2022-12-04T04:34:55.274Z,91.22
2022-12-04T04:37:29.270Z,91.60
2022-12-04T04:40:06.441Z,91.10
2022-12-04T04:42:41.616Z,91.30
2022-12-04T04:45:16.015Z,91.42
2022-12-04T04:47:50.627Z,91.40
2022-12-04T04:50:20.985Z,91.28
2022-12-04T04:52:54.137Z,91.10
2022-12-04T04:56:18.860Z,91.22
2022-12-04T04:58:48.962Z,91.48
2022-12-04T05:01:20.995Z,91.63
2022-12-04T05:03:49.594Z,91.51
2022-12-04T05:06:26.367Z,91.44
2022-12-04T05:08:55.030Z,91.91
2022-12-04T05:11:23.750Z,91.51
2022-12-04T05:13:52.511Z,91.60
2022-12-04T05:16:21.516Z,91.64
2022-12-04T05:19:04.559Z,91.69
2022-12-04T05:21:35.821Z,91.94
2022-12-04T05:24:04.892Z,92.05
2022-12-04T05:26:33.613Z,91.91
2022-12-04T05:29:02.170Z,91.92
2022-12-04T05:31:30.936Z,91.63
2022-12-04T05:34:52.320Z,91.72
2022-12-04T05:37:21.801Z,91.97
2022-12-04T05:39:50.511Z,91.74
2022-12-04T05:42:19.200Z,92.08
2022-12-04T05:44:49.805Z,91.97
2022-12-04T05:47:18.281Z,91.98
2022-12-04T05:49:47.266Z,91.76
2022-12-04T05:52:16.348Z,91.59
2022-12-04T05:54:45.054Z,92.07
2022-12-04T05:57:13.756Z,92.03
2022-12-04T05:59:42.331Z,91.81
2022-12-04T06:02:11.154Z,91.85
2022-12-04T06:04:51.341Z,91.78
2022-12-04T06:07:19.978Z,91.80
2022-12-04T06:10:07.364Z,91.87
2022-12-04T06:12:37.892Z,92.03
2022-12-04T06:15:07.923Z,91.94
2022-12-04T06:17:36.368Z,92.02
2022-12-04T06:20:11.443Z,91.85
2022-12-04T06:22:58.159Z,92.20
2022-12-04T06:26:07.288Z,91.99
2022-12-04T06:29:00.532Z,92.06
2022-12-04T06:31:29.698Z,92.14
2022-12-04T06:33:58.554Z,92.23
2022-12-04T06:36:27.130Z,91.83
2022-12-04T06:38:59.028Z,92.38
2022-12-04T06:41:28.971Z,92.28
2022-12-04T06:43:58.162Z,91.82
2022-12-04T06:46:29.029Z,92.08
2022-12-04T06:48:59.691Z,92.14
2022-12-04T06:51:39.360Z,91.82
2022-12-04T06:54:09.183Z,92.01
2022-12-04T06:56:37.705Z,91.88
2022-12-04T06:59:09.090Z,91.85
2022-12-04T07:01:49.260Z,92.22
2022-12-04T07:04:20.048Z,91.85
2022-12-04T07:06:48.629Z,92.24
2022-12-04T07:09:18.504Z,92.13
2022-12-04T07:11:46.949Z,92.20
2022-12-04T07:14:17.819Z,92.45
2022-12-04T07:16:46.284Z,92.25
2022-12-04T07:19:15.083Z,92.11
2022-12-04T07:23:07.083Z,92.45
2022-12-04T07:25:42.371Z,92.28
2022-12-04T07:28:32.069Z,92.30
2022-12-04T07:31:04.937Z,92.51
2022-12-04T07:33:55.649Z,92.20
2022-12-04T07:36:25.185Z,92.75
2022-12-04T07:38:55.317Z,92.36
2022-12-04T07:41:25.797Z,92.39
2022-12-04T07:43:55.109Z,92.57
2022-12-04T07:46:25.993Z,92.34
2022-12-04T07:48:58.311Z,91.97
2022-12-04T07:51:29.041Z,92.09
2022-12-04T07:54:02.621Z,92.18
2022-12-04T07:56:34.782Z,91.86
2022-12-04T07:59:03.328Z,92.02
2022-12-04T08:01:32.621Z,92.10
2022-12-04T08:04:02.681Z,92.18
2022-12-04T08:06:34.623Z,92.01
2022-12-04T08:09:09.840Z,91.99
2022-12-04T08:11:38.807Z,91.95
2022-12-04T08:14:42.598Z,91.82
2022-12-04T08:17:18.799Z,91.83
2022-12-04T08:19:47.520Z,92.00
2022-12-04T08:22:23.471Z,92.10
2022-12-04T08:24:53.732Z,92.30
2022-12-04T08:27:22.355Z,92.15
2022-12-04T08:29:50.889Z,91.81
2022-12-04T08:32:19.571Z,92.11
2022-12-04T08:34:55.642Z,91.99
2022-12-04T08:37:27.392Z,91.93
2022-12-04T08:40:18.782Z,92.35
2022-12-04T08:42:47.305Z,92.22
2022-12-04T08:45:16.372Z,92.00
2022-12-04T08:47:50.673Z,92.05
2022-12-04T08:50:24.826Z,92.31
2022-12-04T08:53:00.883Z,92.07
2022-12-04T08:55:32.886Z,92.12
2022-12-04T08:58:12.064Z,92.12
2022-12-04T09:00:50.778Z,92.17
2022-12-04T09:03:32.464Z,92.02
2022-12-04T09:10:09.336Z,92.02
2022-12-04T09:16:27.820Z,92.51
2022-12-04T09:19:07.635Z,92.28
2022-12-04T09:21:41.349Z,92.32
2022-12-04T09:24:17.916Z,92.55
2022-12-04T09:27:00.911Z,92.49
2022-12-04T09:30:32.525Z,92.56
2022-12-04T09:33:11.347Z,92.83
2022-12-04T09:35:49.213Z,92.77
2022-12-04T09:38:40.089Z,92.72
2022-12-04T09:41:53.460Z,92.75
2022-12-04T09:44:49.341Z,92.96
2022-12-04T09:47:45.382Z,92.94
2022-12-04T09:50:21.498Z,92.70
2022-12-04T09:53:02.286Z,93.03
2022-12-04T09:55:41.104Z,92.85
2022-12-04T09:58:59.891Z,92.83
2022-12-04T10:01:52.801Z,92.67
2022-12-04T10:04:24.694Z,92.44
2022-12-04T10:07:11.983Z,92.80
2022-12-04T10:09:49.890Z,92.68
2022-12-04T10:12:38.327Z,92.58
2022-12-04T10:15:42.686Z,92.29
2022-12-04T10:18:40.625Z,92.60
2022-12-04T10:21:37.071Z,92.46
2022-12-04T10:24:30.207Z,92.38
2022-12-04T10:27:05.136Z,92.59
2022-12-04T10:29:41.296Z,92.35
2022-12-04T10:32:20.425Z,92.17
2022-12-04T10:35:08.426Z,92.09
2022-12-04T10:37:56.632Z,92.20
2022-12-04T10:40:31.538Z,92.14
2022-12-04T10:43:12.187Z,92.41
2022-12-04T10:45:44.506Z,92.11
2022-12-04T10:48:22.173Z,92.14
2022-12-04T10:50:58.044Z,91.91
2022-12-04T10:53:31.192Z,92.11
2022-12-04T10:56:22.713Z,91.92
2022-12-04T10:59:00.137Z,92.31
2022-12-04T11:01:31.109Z,91.92
2022-12-04T11:04:06.238Z,92.13
2022-12-04T11:06:39.631Z,92.09
2022-12-04T11:09:22.514Z,91.93
2022-12-04T11:11:53.319Z,92.04
2022-12-04T11:14:31.810Z,91.94
2022-12-04T11:17:29.875Z,91.90
2022-12-04T11:24:02.972Z,92.21
2022-12-04T11:26:54.366Z,92.39
2022-12-04T11:29:30.913Z,92.27
2022-12-04T11:32:07.872Z,92.38
2022-12-04T11:34:38.797Z,92.17
2022-12-04T11:37:19.604Z,92.13
2022-12-04T11:39:49.372Z,91.99
2022-12-04T11:42:47.604Z,92.00
2022-12-04T11:45:23.059Z,91.75
2022-12-04T11:47:56.588Z,91.66
2022-12-04T11:50:45.737Z,92.32
2022-12-04T11:53:23.584Z,92.06
2022-12-04T11:56:28.399Z,92.06
2022-12-04T11:59:35.888Z,92.38
2022-12-04T12:02:30.363Z,92.14
2022-12-04T12:05:30.200Z,92.46
2022-12-04T12:08:26.928Z,92.57
2022-12-04T12:11:02.805Z,92.50
2022-12-04T12:13:52.467Z,92.25
2022-12-04T12:16:56.965Z,92.14
2022-12-04T12:20:10.420Z,92.35
2022-12-04T12:22:54.972Z,92.63
2022-12-04T12:25:47.424Z,92.66
2022-12-04T12:29:01.582Z,92.36
2022-12-04T12:31:48.618Z,92.24
2022-12-04T12:34:22.789Z,92.42
2022-12-04T12:36:55.301Z,92.34
2022-12-04T12:39:35.336Z,92.57
2022-12-04T12:42:05.000Z,92.23
2022-12-04T12:44:57.005Z,92.21
2022-12-04T12:47:42.494Z,92.37
2022-12-04T12:50:17.269Z,91.96
2022-12-04T12:52:55.922Z,92.24
2022-12-04T12:55:28.255Z,92.10
2022-12-04T12:58:27.575Z,92.08
2022-12-04T13:04:05.993Z,91.95
2022-12-04T13:07:16.374Z,91.93
2022-12-04T13:10:03.437Z,92.25
2022-12-04T13:12:41.838Z,92.12
2022-12-04T13:15:18.927Z,92.25
2022-12-04T13:17:51.564Z,92.07
2022-12-04T13:20:24.987Z,91.94
2022-12-04T13:23:13.807Z,91.87
2022-12-04T13:25:53.411Z,91.76
2022-12-04T13:28:35.681Z,91.81
2022-12-04T13:31:20.952Z,91.96
2022-12-04T13:34:25.182Z,91.88
2022-12-04T13:37:16.283Z,92.21
2022-12-04T13:40:26.749Z,91.85
2022-12-04T13:43:32.626Z,92.00
2022-12-04T13:46:05.927Z,91.97
2022-12-04T13:48:39.669Z,91.84
2022-12-04T13:51:35.208Z,92.08
2022-12-04T13:54:25.723Z,92.29
2022-12-04T13:56:56.375Z,91.77
2022-12-04T13:59:37.077Z,91.94
2022-12-04T14:02:23.816Z,92.08
2022-12-04T14:04:57.294Z,92.04
2022-12-04T14:07:33.130Z,91.92
2022-12-04T14:10:26.316Z,91.82
2022-12-04T14:13:00.046Z,91.92
2022-12-04T14:15:46.854Z,91.93
2022-12-04T14:18:27.316Z,91.72
2022-12-04T14:21:01.576Z,91.73
2022-12-04T14:23:37.381Z,91.81
2022-12-04T14:26:20.590Z,91.63
2022-12-04T14:28:49.773Z,91.84
2022-12-04T14:31:46.537Z,91.48
2022-12-04T14:34:44.688Z,91.77
2022-12-04T14:37:33.986Z,91.71
2022-12-04T14:40:16.405Z,91.70
2022-12-04T14:42:48.723Z,91.48
2022-12-04T14:45:25.868Z,91.71
2022-12-04T14:48:11.470Z,91.83
2022-12-04T14:50:55.163Z,91.70
2022-12-04T14:53:32.786Z,91.91
2022-12-04T14:56:15.600Z,91.55
2022-12-04T14:58:44.375Z,91.75
2022-12-04T15:01:54.929Z,92.00
2022-12-04T15:04:30.217Z,91.68
2022-12-04T15:07:02.012Z,91.67
2022-12-04T15:10:19.662Z,91.95
2022-12-04T15:12:52.111Z,91.79
2022-12-04T15:15:25.494Z,92.09
2022-12-04T15:18:20.000Z,92.11
2022-12-04T15:20:58.615Z,91.90
2022-12-04T15:24:37.416Z,92.02
2022-12-04T15:26:43.058Z,92.34
2022-12-04T15:29:19.939Z,92.36
2022-12-04T15:31:55.929Z,92.21
2022-12-04T15:34:32.412Z,91.94
2022-12-04T15:37:07.160Z,92.22
2022-12-04T15:39:37.601Z,92.30
2022-12-04T15:42:15.090Z,92.46
2022-12-04T15:44:53.142Z,92.39
2022-12-04T15:47:25.697Z,92.01
2022-12-04T15:49:54.543Z,92.01
2022-12-04T15:52:24.694Z,91.74
2022-12-04T16:01:25.912Z,92.50
2022-12-04T16:04:03.421Z,92.36
2022-12-04T16:06:47.910Z,92.19
2022-12-04T16:09:48.208Z,92.40
2022-12-04T16:12:24.891Z,92.36
2022-12-04T16:14:57.600Z,92.49
2022-12-04T16:17:30.664Z,92.49
2022-12-04T16:20:06.987Z,92.45
2022-12-04T16:22:51.029Z,92.29
2022-12-04T16:25:56.815Z,92.16
2022-12-04T16:28:41.983Z,92.30
2022-12-04T16:31:12.669Z,92.22
2022-12-04T16:33:41.769Z,92.25
2022-12-04T16:36:13.710Z,92.22
2022-12-04T16:38:42.180Z,92.31
2022-12-04T16:41:14.716Z,92.11
2022-12-04T16:43:52.095Z,92.43
2022-12-04T16:46:28.908Z,91.96
2022-12-04T16:48:59.508Z,91.75
2022-12-04T16:51:31.554Z,92.12
2022-12-04T16:54:00.867Z,92.29
2022-12-04T16:56:34.669Z,91.91
2022-12-04T16:59:27.106Z,92.30
2022-12-04T17:01:56.561Z,92.23
2022-12-04T17:04:25.690Z,92.15
2022-12-04T17:07:03.144Z,92.11
2022-12-04T17:09:34.887Z,91.92
2022-12-04T17:12:41.148Z,92.06
2022-12-04T17:15:24.950Z,92.40
2022-12-04T17:17:53.815Z,92.13
2022-12-04T17:20:22.871Z,92.05
2022-12-04T17:22:51.420Z,92.17
2022-12-04T17:25:20.256Z,92.04
2022-12-04T17:27:48.854Z,92.05
2022-12-04T17:31:09.748Z,91.45
2022-12-04T17:39:03.459Z,92.24
2022-12-04T17:41:44.050Z,92.50
2022-12-04T17:44:57.786Z,92.51
2022-12-04T17:48:41.969Z,92.57
2022-12-04T17:51:31.266Z,92.97
2022-12-04T17:54:23.047Z,92.78
2022-12-04T17:56:56.237Z,92.69
2022-12-04T17:59:27.210Z,92.77
2022-12-04T18:01:55.722Z,92.89
2022-12-04T18:04:30.529Z,92.65
2022-12-04T18:07:01.835Z,92.72
2022-12-04T18:09:58.643Z,92.77
2022-12-04T18:12:27.519Z,92.75
2022-12-04T18:14:56.093Z,92.84
2022-12-04T18:17:24.563Z,92.55
2022-12-04T18:19:53.098Z,92.73
2022-12-04T18:22:21.668Z,92.68
2022-12-04T18:25:05.824Z,92.77
2022-12-04T18:27:38.988Z,92.99
2022-12-04T18:30:13.823Z,92.81
2022-12-04T18:32:46.609Z,92.36
2022-12-04T18:35:15.489Z,92.54
2022-12-04T18:37:44.299Z,92.71
2022-12-04T18:41:04.847Z,92.66
2022-12-04T18:43:49.062Z,92.79
2022-12-04T18:46:18.307Z,92.71
2022-12-04T18:48:48.275Z,92.84
2022-12-04T18:51:49.305Z,93.04
2022-12-04T18:54:21.222Z,93.01
2022-12-04T18:56:56.977Z,92.81
2022-12-04T18:59:32.429Z,92.96
2022-12-04T19:02:03.316Z,92.66
2022-12-04T19:04:33.339Z,92.54
2022-12-04T19:07:04.279Z,92.51
2022-12-04T19:14:22.336Z,92.61
2022-12-04T19:16:55.067Z,92.63
2022-12-04T19:19:31.471Z,92.59
2022-12-04T19:22:04.373Z,92.62
2022-12-04T19:24:36.684Z,92.63
2022-12-04T19:27:12.166Z,92.18
2022-12-04T19:30:13.139Z,92.40
2022-12-04T19:32:55.235Z,92.32
2022-12-04T19:35:36.529Z,92.22
2022-12-04T19:38:09.095Z,92.61
2022-12-04T19:44:40.196Z,92.46
2022-12-04T19:47:54.440Z,92.54
2022-12-04T19:51:09.018Z,92.56
2022-12-04T19:53:58.362Z,92.38
2022-12-04T19:56:33.108Z,92.46
2022-12-04T19:59:07.818Z,92.65
2022-12-04T20:01:41.704Z,92.56
2022-12-04T20:04:14.180Z,92.61
2022-12-04T20:06:56.267Z,92.30
2022-12-04T20:09:28.199Z,92.15
2022-12-04T20:12:00.450Z,92.29
2022-12-04T20:14:39.578Z,92.37
2022-12-04T20:17:11.903Z,91.80
2022-12-04T20:19:44.029Z,91.97
2022-12-04T20:22:16.006Z,92.38
2022-12-04T20:24:49.174Z,92.03
2022-12-04T20:27:21.196Z,92.06
2022-12-04T20:29:57.436Z,91.99
2022-12-04T20:32:29.630Z,92.21
2022-12-04T20:35:34.591Z,91.59
2022-12-04T20:38:07.244Z,91.98
2022-12-04T20:40:39.131Z,92.02
2022-12-04T20:43:11.022Z,91.70
2022-12-04T20:45:47.628Z,91.80
2022-12-04T20:48:22.683Z,92.03
2022-12-04T20:50:54.704Z,91.79
2022-12-04T20:53:30.061Z,91.90
2022-12-04T20:56:01.924Z,91.48
2022-12-04T20:58:33.962Z,91.98
2022-12-04T21:01:10.640Z,91.81
2022-12-04T21:03:50.522Z,91.67
2022-12-04T21:06:31.002Z,91.94
2022-12-04T21:09:08.096Z,91.55
2022-12-04T21:11:45.098Z,91.81
2022-12-04T21:14:43.386Z,91.90
2022-12-04T21:17:29.582Z,92.11
2022-12-04T21:20:07.271Z,91.79
2022-12-04T21:22:39.753Z,91.66
2022-12-04T21:25:12.443Z,91.60
2022-12-04T21:27:47.359Z,91.55
2022-12-04T21:30:19.697Z,92.04
2022-12-04T21:32:54.716Z,91.63
2022-12-04T21:38:13.920Z,91.89
2022-12-04T21:40:48.875Z,91.70
2022-12-04T21:43:20.792Z,91.72
2022-12-04T21:46:05.873Z,91.84
2022-12-04T21:48:48.012Z,91.33
2022-12-04T21:51:48.261Z,91.82
2022-12-04T21:54:12.325Z,91.25
2022-12-04T21:56:44.215Z,91.28
2022-12-04T21:59:41.455Z,91.56
2022-12-04T22:02:17.725Z,91.53
2022-12-04T22:04:50.871Z,91.59
2022-12-04T22:07:22.856Z,91.46
2022-12-04T22:09:55.735Z,91.29
2022-12-04T22:15:22.186Z,91.65
2022-12-04T22:17:56.757Z,91.52
2022-12-04T22:20:31.708Z,91.85
2022-12-04T22:23:06.277Z,91.19
2022-12-04T22:25:39.013Z,91.42
2022-12-04T22:28:14.055Z,91.45
2022-12-04T22:30:47.625Z,91.51
2022-12-04T22:33:22.191Z,91.15
2022-12-04T22:35:54.281Z,91.24
2022-12-04T22:38:28.481Z,91.46
2022-12-04T22:41:06.711Z,91.48
2022-12-04T22:43:40.989Z,91.22
2022-12-04T22:46:14.188Z,91.05
2022-12-04T22:48:46.798Z,91.46
2022-12-04T22:51:24.551Z,91.41
2022-12-04T22:54:05.436Z,90.83
2022-12-04T22:56:44.204Z,91.57
2022-12-04T22:59:16.291Z,91.60
2022-12-04T23:01:48.191Z,91.51
2022-12-04T23:04:20.083Z,91.53
2022-12-04T23:06:55.609Z,91.20
2022-12-04T23:09:28.090Z,91.28
2022-12-04T23:12:00.269Z,91.38
2022-12-04T23:14:35.796Z,91.10
2022-12-04T23:17:07.706Z,91.07
2022-12-04T23:19:39.639Z,91.17
2022-12-04T23:22:14.404Z,91.33
2022-12-04T23:24:46.447Z,91.29
2022-12-04T23:27:23.791Z,91.58
2022-12-04T23:29:56.047Z,91.44
2022-12-04T23:32:29.208Z,91.49
2022-12-04T23:35:01.044Z,91.61
2022-12-04T23:37:35.600Z,91.21
2022-12-04T23:40:09.876Z,91.78
2022-12-04T23:42:41.730Z,91.41
2022-12-04T23:45:13.845Z,91.33
2022-12-04T23:47:47.473Z,91.92
2022-12-04T23:50:19.824Z,91.57
2022-12-04T23:53:26.622Z,91.76
2022-12-04T23:56:00.747Z,91.32
2022-12-04T23:58:33.926Z,91.54
